sensor_id;sensor_type;location;lat;lon;timestamp;pressure;altitude;pressure_sealevel;temperature;humidity
10462;BME280;5278;42.656;23.374;2023-02-12T00:01:02;95580.19;;;2.76;44.35
10462;BME280;5278;42.656;23.374;2023-02-12T00:03:30;95588.41;;;2.81;44.75
10462;BME280;5278;42.656;23.374;2023-02-12T00:06:00;95585.53;;;2.85;44.62
10462;BME280;5278;42.656;23.374;2023-02-12T00:08:27;95592.91;;;2.90;44.54
10462;BME280;5278;42.656;23.374;2023-02-12T00:10:54;95590.47;;;2.88;44.69
10462;BME280;5278;42.656;23.374;2023-02-12T00:13:21;95595.59;;;2.88;44.60
10462;BME280;5278;42.656;23.374;2023-02-12T00:15:48;95591.28;;;2.89;44.77
10462;BME280;5278;42.656;23.374;2023-02-12T00:18:15;95594.56;;;2.91;45.02
10462;BME280;5278;42.656;23.374;2023-02-12T00:20:43;95593.53;;;2.93;44.48
10462;BME280;5278;42.656;23.374;2023-02-12T00:23:10;95580.41;;;2.73;44.16
10462;BME280;5278;42.656;23.374;2023-02-12T00:25:40;95577.84;;;2.73;44.65
10462;BME280;5278;42.656;23.374;2023-02-12T00:28:07;95589.84;;;2.85;44.25
10462;BME280;5278;42.656;23.374;2023-02-12T00:30:34;95598.25;;;2.87;43.98
10462;BME280;5278;42.656;23.374;2023-02-12T00:33:01;95594.56;;;2.91;44.78
10462;BME280;5278;42.656;23.374;2023-02-12T00:35:28;95593.31;;;2.96;44.10
10462;BME280;5278;42.656;23.374;2023-02-12T00:37:56;95484.44;;;2.39;43.72
10462;BME280;5278;42.656;23.374;2023-02-12T00:40:23;95581.41;;;2.95;43.84
10462;BME280;5278;42.656;23.374;2023-02-12T00:42:50;95571.38;;;2.92;44.05
10462;BME280;5278;42.656;23.374;2023-02-12T00:45:17;95546.94;;;2.74;44.02
10462;BME280;5278;42.656;23.374;2023-02-12T00:47:44;95580.53;;;2.84;43.79
10462;BME280;5278;42.656;23.374;2023-02-12T00:50:11;95577.97;;;2.84;44.56
10462;BME280;5278;42.656;23.374;2023-02-12T00:52:37;95574.66;;;2.82;44.08
10462;BME280;5278;42.656;23.374;2023-02-12T00:55:06;95557.84;;;2.78;44.27
10462;BME280;5278;42.656;23.374;2023-02-12T00:57:33;95554.75;;;2.85;43.90
10462;BME280;5278;42.656;23.374;2023-02-12T01:00:00;95547.97;;;2.84;44.48
10462;BME280;5278;42.656;23.374;2023-02-12T01:02:27;95537.94;;;2.69;44.06
10462;BME280;5278;42.656;23.374;2023-02-12T01:04:54;95520.50;;;2.74;44.34
10462;BME280;5278;42.656;23.374;2023-02-12T01:07:21;95426.59;;;2.22;44.05
10462;BME280;5278;42.656;23.374;2023-02-12T01:09:47;95548.66;;;2.99;44.17
10462;BME280;5278;42.656;23.374;2023-02-12T01:12:16;95544.66;;;2.95;44.11
10462;BME280;5278;42.656;23.374;2023-02-12T01:14:43;95548.38;;;2.91;44.56
10462;BME280;5278;42.656;23.374;2023-02-12T01:17:09;95544.16;;;2.90;44.09
10462;BME280;5278;42.656;23.374;2023-02-12T01:19:36;95555.16;;;2.92;44.36
10462;BME280;5278;42.656;23.374;2023-02-12T01:22:03;95565.19;;;2.95;44.05
10462;BME280;5278;42.656;23.374;2023-02-12T01:24:30;95552.69;;;2.90;44.02
10462;BME280;5278;42.656;23.374;2023-02-12T01:26:57;95558.41;;;2.94;44.03
10462;BME280;5278;42.656;23.374;2023-02-12T01:29:25;95577.59;;;3.01;44.28
10462;BME280;5278;42.656;23.374;2023-02-12T01:31:52;95561.06;;;3.05;44.07
10462;BME280;5278;42.656;23.374;2023-02-12T01:34:19;95558.81;;;3.00;43.91
10462;BME280;5278;42.656;23.374;2023-02-12T01:36:45;95562.94;;;3.03;44.20
10462;BME280;5278;42.656;23.374;2023-02-12T01:39:12;95553.38;;;3.05;44.75
10462;BME280;5278;42.656;23.374;2023-02-12T01:41:42;95475.78;;;2.52;44.60
10462;BME280;5278;42.656;23.374;2023-02-12T01:44:15;95544.84;;;3.04;44.38
10462;BME280;5278;42.656;23.374;2023-02-12T01:46:44;95546.50;;;3.06;44.85
10462;BME280;5278;42.656;23.374;2023-02-12T01:49:15;95538.78;;;3.06;44.63
10462;BME280;5278;42.656;23.374;2023-02-12T01:51:45;95540.94;;;2.99;45.14
10462;BME280;5278;42.656;23.374;2023-02-12T01:54:15;95532.97;;;2.91;45.76
10462;BME280;5278;42.656;23.374;2023-02-12T01:56:43;95517.19;;;2.84;45.01
10462;BME280;5278;42.656;23.374;2023-02-12T01:59:10;95503.56;;;2.71;46.60
10462;BME280;5278;42.656;23.374;2023-02-12T02:01:38;95513.91;;;2.70;46.02
10462;BME280;5278;42.656;23.374;2023-02-12T02:04:10;95432.16;;;2.03;46.00
10462;BME280;5278;42.656;23.374;2023-02-12T02:06:43;95519.50;;;2.64;46.10
10462;BME280;5278;42.656;23.374;2023-02-12T02:09:13;95523.06;;;2.61;46.96
10462;BME280;5278;42.656;23.374;2023-02-12T02:11:40;95528.09;;;2.63;46.36
10462;BME280;5278;42.656;23.374;2023-02-12T02:14:24;95536.09;;;2.58;46.83
10462;BME280;5278;42.656;23.374;2023-02-12T02:17:15;95464.22;;;1.96;46.98
10462;BME280;5278;42.656;23.374;2023-02-12T02:20:01;95540.09;;;2.49;47.41
10462;BME280;5278;42.656;23.374;2023-02-12T02:22:36;95535.97;;;2.34;48.59
10462;BME280;5278;42.656;23.374;2023-02-12T02:28:23;95531.88;;;2.06;49.07
10462;BME280;5278;42.656;23.374;2023-02-12T02:30:59;95535.75;;;1.99;49.92
10462;BME280;5278;42.656;23.374;2023-02-12T02:33:36;95524.69;;;1.99;49.94
10462;BME280;5278;42.656;23.374;2023-02-12T02:36:13;95533.81;;;2.03;49.77
10462;BME280;5278;42.656;23.374;2023-02-12T02:38:45;95531.13;;;2.04;50.24
10462;BME280;5278;42.656;23.374;2023-02-12T02:41:19;95522.22;;;2.10;50.13
10462;BME280;5278;42.656;23.374;2023-02-12T02:43:52;95523.97;;;2.09;50.13
10462;BME280;5278;42.656;23.374;2023-02-12T02:46:26;95520.41;;;2.12;50.35
10462;BME280;5278;42.656;23.374;2023-02-12T02:48:58;95532.09;;;2.16;49.65
10462;BME280;5278;42.656;23.374;2023-02-12T02:51:28;95544.28;;;2.25;49.78
10462;BME280;5278;42.656;23.374;2023-02-12T02:54:02;95547.50;;;2.29;50.44
10462;BME280;5278;42.656;23.374;2023-02-12T02:56:31;95545.44;;;2.46;49.77
10462;BME280;5278;42.656;23.374;2023-02-12T02:59:04;95553.31;;;2.56;49.88
10462;BME280;5278;42.656;23.374;2023-02-12T03:01:38;95433.38;;;1.98;48.56
10462;BME280;5278;42.656;23.374;2023-02-12T03:04:08;95429.59;;;2.03;48.83
10462;BME280;5278;42.656;23.374;2023-02-12T03:06:41;95542.44;;;2.78;48.63
10462;BME280;5278;42.656;23.374;2023-02-12T03:09:14;95536.81;;;2.73;48.79
10462;BME280;5278;42.656;23.374;2023-02-12T03:11:43;95537.63;;;2.73;49.09
10462;BME280;5278;42.656;23.374;2023-02-12T03:14:13;95532.56;;;2.84;48.90
10462;BME280;5278;42.656;23.374;2023-02-12T03:16:50;95546.13;;;2.86;48.55
10462;BME280;5278;42.656;23.374;2023-02-12T03:19:22;95524.28;;;2.81;48.75
10462;BME280;5278;42.656;23.374;2023-02-12T03:21:54;95532.97;;;2.91;48.75
10462;BME280;5278;42.656;23.374;2023-02-12T03:24:25;95529.06;;;2.98;49.03
10462;BME280;5278;42.656;23.374;2023-02-12T03:26:59;95539.03;;;2.90;48.70
10462;BME280;5278;42.656;23.374;2023-02-12T03:29:29;95520.47;;;2.86;48.25
10462;BME280;5278;42.656;23.374;2023-02-12T03:32:11;95536.19;;;2.82;49.55
10462;BME280;5278;42.656;23.374;2023-02-12T03:34:47;95522.31;;;2.84;48.73
10462;BME280;5278;42.656;23.374;2023-02-12T03:37:20;95531.56;;;2.87;49.64
10462;BME280;5278;42.656;23.374;2023-02-12T03:39:52;95440.94;;;2.25;49.74
10462;BME280;5278;42.656;23.374;2023-02-12T03:42:30;95518.69;;;2.99;49.70
10462;BME280;5278;42.656;23.374;2023-02-12T03:45:01;95519.19;;;3.04;49.74
10462;BME280;5278;42.656;23.374;2023-02-12T03:47:38;95521.22;;;3.12;49.14
10462;BME280;5278;42.656;23.374;2023-02-12T03:50:10;95525.22;;;3.16;49.61
10462;BME280;5278;42.656;23.374;2023-02-12T03:52:40;95428.03;;;2.39;49.41
10462;BME280;5278;42.656;23.374;2023-02-12T03:55:09;95528.25;;;2.97;50.43
10462;BME280;5278;42.656;23.374;2023-02-12T03:57:40;95520.88;;;2.93;50.67
10462;BME280;5278;42.656;23.374;2023-02-12T04:00:16;95522.13;;;2.75;50.82
10462;BME280;5278;42.656;23.374;2023-02-12T04:02:45;95518.22;;;2.69;51.46
10462;BME280;5278;42.656;23.374;2023-02-12T04:05:17;95502.44;;;2.63;51.05
10462;BME280;5278;42.656;23.374;2023-02-12T04:07:44;95510.03;;;2.77;50.69
10462;BME280;5278;42.656;23.374;2023-02-12T04:10:12;95428.66;;;2.17;51.00
10462;BME280;5278;42.656;23.374;2023-02-12T04:12:40;95520.50;;;2.74;50.79
10462;BME280;5278;42.656;23.374;2023-02-12T04:15:29;95523.56;;;2.79;50.26
10462;BME280;5278;42.656;23.374;2023-02-12T04:18:06;95528.38;;;2.83;50.88
10462;BME280;5278;42.656;23.374;2023-02-12T04:20:40;95527.25;;;2.87;50.60
10462;BME280;5278;42.656;23.374;2023-02-12T04:23:17;95515.88;;;2.79;51.13
10462;BME280;5278;42.656;23.374;2023-02-12T04:25:54;95533.84;;;2.79;51.08
10462;BME280;5278;42.656;23.374;2023-02-12T04:28:33;95492.31;;;2.36;51.89
10462;BME280;5278;42.656;23.374;2023-02-12T04:31:04;95540.19;;;2.60;52.17
10462;BME280;5278;42.656;23.374;2023-02-12T04:33:42;95544.31;;;2.63;52.01
10462;BME280;5278;42.656;23.374;2023-02-12T04:36:14;95471.69;;;1.99;52.46
10462;BME280;5278;42.656;23.374;2023-02-12T04:38:47;95564.41;;;2.56;52.36
10462;BME280;5278;42.656;23.374;2023-02-12T04:41:16;95546.97;;;2.62;51.54
10462;BME280;5278;42.656;23.374;2023-02-12T04:43:43;95540.41;;;2.57;51.93
10462;BME280;5278;42.656;23.374;2023-02-12T04:46:10;95542.75;;;2.60;52.38
10462;BME280;5278;42.656;23.374;2023-02-12T04:48:49;95554.38;;;2.53;52.39
10462;BME280;5278;42.656;23.374;2023-02-12T04:51:17;95548.00;;;2.46;52.91
10462;BME280;5278;42.656;23.374;2023-02-12T04:53:44;95560.94;;;2.57;52.13
10462;BME280;5278;42.656;23.374;2023-02-12T04:56:12;95545.53;;;2.57;52.87
10462;BME280;5278;42.656;23.374;2023-02-12T04:58:39;95541.84;;;2.49;52.54
10462;BME280;5278;42.656;23.374;2023-02-12T05:01:06;95558.66;;;2.66;52.72
10462;BME280;5278;42.656;23.374;2023-02-12T05:03:33;95547.88;;;2.60;53.28
10462;BME280;5278;42.656;23.374;2023-02-12T05:06:03;95553.84;;;2.74;52.96
10462;BME280;5278;42.656;23.374;2023-02-12T05:08:30;95559.91;;;2.73;53.05
10462;BME280;5278;42.656;23.374;2023-02-12T05:11:02;95557.75;;;2.67;53.63
10462;BME280;5278;42.656;23.374;2023-02-12T05:13:29;95550.88;;;2.67;53.34
10462;BME280;5278;42.656;23.374;2023-02-12T05:15:56;95556.00;;;2.67;52.83
10462;BME280;5278;42.656;23.374;2023-02-12T05:18:23;95565.63;;;2.76;52.81
10462;BME280;5278;42.656;23.374;2023-02-12T05:20:54;95557.22;;;2.87;52.45
10462;BME280;5278;42.656;23.374;2023-02-12T05:23:24;95576.00;;;2.87;52.57
10462;BME280;5278;42.656;23.374;2023-02-12T05:25:51;95572.00;;;2.83;52.47
10462;BME280;5278;42.656;23.374;2023-02-12T05:28:18;95567.47;;;2.87;52.92
10462;BME280;5278;42.656;23.374;2023-02-12T05:30:45;95582.06;;;2.74;55.79
10462;BME280;5278;42.656;23.374;2023-02-12T05:33:12;95582.44;;;2.80;56.68
10462;BME280;5278;42.656;23.374;2023-02-12T05:35:38;95595.19;;;2.82;56.27
10462;BME280;5278;42.656;23.374;2023-02-12T05:38:05;95583.88;;;2.84;55.48
10462;BME280;5278;42.656;23.374;2023-02-12T05:40:34;95591.19;;;2.78;55.54
10462;BME280;5278;42.656;23.374;2023-02-12T05:43:01;95603.50;;;2.73;55.54
10462;BME280;5278;42.656;23.374;2023-02-12T05:45:28;95598.25;;;2.74;56.38
10462;BME280;5278;42.656;23.374;2023-02-12T05:47:55;95608.84;;;2.82;55.53
10462;BME280;5278;42.656;23.374;2023-02-12T05:50:22;95594.75;;;2.75;58.00
10462;BME280;5278;42.656;23.374;2023-02-12T05:52:49;95590.69;;;2.73;57.75
10462;BME280;5278;42.656;23.374;2023-02-12T05:55:16;95591.28;;;2.64;58.51
10462;BME280;5278;42.656;23.374;2023-02-12T05:57:44;95617.25;;;2.72;60.21
10462;BME280;5278;42.656;23.374;2023-02-12T06:00:12;95615.19;;;2.77;60.55
10462;BME280;5278;42.656;23.374;2023-02-12T06:02:39;95595.16;;;2.69;61.22
10462;BME280;5278;42.656;23.374;2023-02-12T06:05:06;95610.78;;;2.79;61.55
10462;BME280;5278;42.656;23.374;2023-02-12T06:07:33;95526.69;;;2.33;61.41
10462;BME280;5278;42.656;23.374;2023-02-12T06:10:00;95610.97;;;3.01;61.55
10462;BME280;5278;42.656;23.374;2023-02-12T06:12:27;95611.38;;;3.08;61.20
10462;BME280;5278;42.656;23.374;2023-02-12T06:14:55;95586.94;;;2.89;61.41
10462;BME280;5278;42.656;23.374;2023-02-12T06:17:22;95581.13;;;2.87;62.32
10462;BME280;5278;42.656;23.374;2023-02-12T06:19:49;95630.25;;;3.19;62.13
10462;BME280;5278;42.656;23.374;2023-02-12T06:22:15;95619.38;;;3.28;62.14
10462;BME280;5278;42.656;23.374;2023-02-12T06:24:42;95622.34;;;3.22;63.80
10462;BME280;5278;42.656;23.374;2023-02-12T06:27:09;95620.69;;;3.21;64.23
10462;BME280;5278;42.656;23.374;2023-02-12T06:29:36;95626.56;;;3.11;66.16
10462;BME280;5278;42.656;23.374;2023-02-12T06:32:04;95625.66;;;3.12;67.47
10462;BME280;5278;42.656;23.374;2023-02-12T06:34:33;95628.44;;;3.09;68.49
10462;BME280;5278;42.656;23.374;2023-02-12T06:36:59;95619.97;;;3.19;68.29
10462;BME280;5278;42.656;23.374;2023-02-12T06:39:26;95636.09;;;3.21;69.32
10462;BME280;5278;42.656;23.374;2023-02-12T06:41:53;95591.44;;;3.11;69.47
10462;BME280;5278;42.656;23.374;2023-02-12T06:44:20;95622.84;;;3.27;70.83
10462;BME280;5278;42.656;23.374;2023-02-12T06:46:47;95618.34;;;3.18;72.51
10462;BME280;5278;42.656;23.374;2023-02-12T06:49:15;95622.34;;;3.22;72.20
10462;BME280;5278;42.656;23.374;2023-02-12T06:51:42;95557.53;;;2.57;73.18
10462;BME280;5278;42.656;23.374;2023-02-12T06:54:13;95611.66;;;3.16;74.11
10462;BME280;5278;42.656;23.374;2023-02-12T06:56:40;95619.78;;;3.10;74.51
10462;BME280;5278;42.656;23.374;2023-02-12T06:59:11;95626.16;;;3.04;74.71
10462;BME280;5278;42.656;23.374;2023-02-12T07:01:38;95626.66;;;3.09;74.71
10462;BME280;5278;42.656;23.374;2023-02-12T07:04:05;95633.94;;;3.15;74.48
10462;BME280;5278;42.656;23.374;2023-02-12T07:06:34;95635.00;;;3.13;74.92
10462;BME280;5278;42.656;23.374;2023-02-12T07:09:02;95632.09;;;3.17;74.76
10462;BME280;5278;42.656;23.374;2023-02-12T07:11:31;95630.69;;;3.13;74.69
10462;BME280;5278;42.656;23.374;2023-02-12T07:13:58;95623.81;;;3.01;74.99
10462;BME280;5278;42.656;23.374;2023-02-12T07:16:25;95638.19;;;3.03;74.96
10462;BME280;5278;42.656;23.374;2023-02-12T07:18:51;95460.63;;;1.86;74.78
10462;BME280;5278;42.656;23.374;2023-02-12T07:21:18;95619.59;;;3.00;74.02
10462;BME280;5278;42.656;23.374;2023-02-12T07:23:47;95630.19;;;3.08;74.63
10462;BME280;5278;42.656;23.374;2023-02-12T07:26:15;95622.66;;;3.05;75.21
10462;BME280;5278;42.656;23.374;2023-02-12T07:28:43;95625.44;;;3.02;75.19
10462;BME280;5278;42.656;23.374;2023-02-12T07:31:11;95630.91;;;2.97;75.42
10462;BME280;5278;42.656;23.374;2023-02-12T07:33:39;95624.94;;;2.97;75.38
10462;BME280;5278;42.656;23.374;2023-02-12T07:36:08;95640.63;;;3.05;74.89
10462;BME280;5278;42.656;23.374;2023-02-12T07:38:35;95633.34;;;2.99;75.73
10462;BME280;5278;42.656;23.374;2023-02-12T07:41:10;95642.06;;;2.96;76.10
10462;BME280;5278;42.656;23.374;2023-02-12T07:43:38;95647.75;;;2.89;76.35
10462;BME280;5278;42.656;23.374;2023-02-12T07:46:07;95643.41;;;2.89;76.90
10462;BME280;5278;42.656;23.374;2023-02-12T07:48:34;95657.38;;;2.98;76.53
10462;BME280;5278;42.656;23.374;2023-02-12T07:51:05;95654.59;;;3.01;76.38
10462;BME280;5278;42.656;23.374;2023-02-12T07:53:33;95652.44;;;3.08;76.29
10462;BME280;5278;42.656;23.374;2023-02-12T07:56:10;95660.13;;;2.95;76.56
10462;BME280;5278;42.656;23.374;2023-02-12T07:58:38;95677.19;;;2.96;77.12
10462;BME280;5278;42.656;23.374;2023-02-12T08:01:13;95658.38;;;2.95;77.30
10462;BME280;5278;42.656;23.374;2023-02-12T08:03:41;95655.44;;;2.89;77.51
10462;BME280;5278;42.656;23.374;2023-02-12T08:06:09;95663.13;;;2.89;78.01
10462;BME280;5278;42.656;23.374;2023-02-12T08:08:37;95659.22;;;2.96;77.46
10462;BME280;5278;42.656;23.374;2023-02-12T08:11:04;95641.88;;;2.87;77.39
10462;BME280;5278;42.656;23.374;2023-02-12T08:13:33;95656.75;;;3.07;77.53
10462;BME280;5278;42.656;23.374;2023-02-12T08:16:01;95656.94;;;3.04;77.79
10462;BME280;5278;42.656;23.374;2023-02-12T08:18:29;95653.28;;;3.08;77.44
10462;BME280;5278;42.656;23.374;2023-02-12T08:21:01;95665.16;;;3.22;76.86
10462;BME280;5278;42.656;23.374;2023-02-12T08:23:28;95659.72;;;3.26;76.83
10462;BME280;5278;42.656;23.374;2023-02-12T08:26:04;95676.44;;;3.44;76.26
10462;BME280;5278;42.656;23.374;2023-02-12T08:28:30;95676.50;;;3.56;75.95
10462;BME280;5278;42.656;23.374;2023-02-12T08:31:00;95674.13;;;3.65;74.29
10462;BME280;5278;42.656;23.374;2023-02-12T08:33:27;95651.56;;;3.58;74.29
10462;BME280;5278;42.656;23.374;2023-02-12T08:36:00;95680.28;;;3.75;74.33
10462;BME280;5278;42.656;23.374;2023-02-12T08:38:27;95687.06;;;3.76;74.24
10462;BME280;5278;42.656;23.374;2023-02-12T08:40:54;95583.16;;;3.08;73.73
10462;BME280;5278;42.656;23.374;2023-02-12T08:43:21;95696.75;;;3.73;74.56
10462;BME280;5278;42.656;23.374;2023-02-12T08:45:47;95682.88;;;3.63;74.80
10462;BME280;5278;42.656;23.374;2023-02-12T08:48:16;95693.84;;;3.65;74.98
10462;BME280;5278;42.656;23.374;2023-02-12T08:50:45;95574.66;;;2.82;74.68
10462;BME280;5278;42.656;23.374;2023-02-12T08:53:12;95659.50;;;3.29;75.56
10462;BME280;5278;42.656;23.374;2023-02-12T08:55:38;95695.13;;;3.34;75.06
10462;BME280;5278;42.656;23.374;2023-02-12T08:58:05;95705.84;;;3.28;75.94
10462;BME280;5278;42.656;23.374;2023-02-12T09:00:32;95699.47;;;3.33;76.47
10462;BME280;5278;42.656;23.374;2023-02-12T09:02:59;95713.09;;;3.59;75.46
10462;BME280;5278;42.656;23.374;2023-02-12T09:05:27;95705.38;;;3.72;75.24
10462;BME280;5278;42.656;23.374;2023-02-12T09:07:54;95695.28;;;3.81;73.97
10462;BME280;5278;42.656;23.374;2023-02-12T09:10:20;95719.31;;;3.93;73.86
10462;BME280;5278;42.656;23.374;2023-02-12T09:12:47;95709.06;;;4.04;73.95
10462;BME280;5278;42.656;23.374;2023-02-12T09:15:14;95712.88;;;4.11;73.88
10462;BME280;5278;42.656;23.374;2023-02-12T09:17:41;95713.94;;;4.20;73.98
10462;BME280;5278;42.656;23.374;2023-02-12T09:20:08;95715.53;;;4.33;72.79
10462;BME280;5278;42.656;23.374;2023-02-12T09:22:37;95622.72;;;3.78;73.10
10462;BME280;5278;42.656;23.374;2023-02-12T09:25:05;95716.69;;;4.29;73.18
10462;BME280;5278;42.656;23.374;2023-02-12T09:27:31;95730.47;;;4.28;75.17
10462;BME280;5278;42.656;23.374;2023-02-12T09:29:58;95736.34;;;4.30;74.96
10462;BME280;5278;42.656;23.374;2023-02-12T09:32:25;95725.13;;;4.31;73.95
10462;BME280;5278;42.656;23.374;2023-02-12T09:34:52;95715.53;;;4.33;73.12
10462;BME280;5278;42.656;23.374;2023-02-12T09:37:19;95729.44;;;4.55;72.58
10462;BME280;5278;42.656;23.374;2023-02-12T09:39:47;95727.84;;;4.65;72.30
10462;BME280;5278;42.656;23.374;2023-02-12T09:42:33;95731.69;;;4.59;71.39
10462;BME280;5278;42.656;23.374;2023-02-12T09:45:11;95726.44;;;4.61;71.09
10462;BME280;5278;42.656;23.374;2023-02-12T09:47:48;95704.38;;;4.46;71.60
10462;BME280;5278;42.656;23.374;2023-02-12T09:50:31;95735.75;;;4.51;71.79
10462;BME280;5278;42.656;23.374;2023-02-12T09:52:59;95739.03;;;4.53;71.39
10462;BME280;5278;42.656;23.374;2023-02-12T09:55:29;95735.31;;;4.57;72.09
10462;BME280;5278;42.656;23.374;2023-02-12T09:57:57;95752.75;;;4.64;71.39
10462;BME280;5278;42.656;23.374;2023-02-12T10:00:26;95738.53;;;4.71;71.33
10462;BME280;5278;42.656;23.374;2023-02-12T10:02:56;95740.31;;;4.82;71.26
10462;BME280;5278;42.656;23.374;2023-02-12T10:05:28;95744.81;;;4.91;70.73
10462;BME280;5278;42.656;23.374;2023-02-12T10:11:00;95733.41;;;5.29;68.98
10462;BME280;5278;42.656;23.374;2023-02-12T10:13:42;95732.75;;;5.38;68.63
10462;BME280;5278;42.656;23.374;2023-02-12T10:16:15;95729.34;;;5.71;66.97
10462;BME280;5278;42.656;23.374;2023-02-12T10:18:57;95613.38;;;5.48;64.94
10462;BME280;5278;42.656;23.374;2023-02-12T10:21:41;95737.41;;;6.65;62.13
10462;BME280;5278;42.656;23.374;2023-02-12T10:27:10;95720.41;;;7.15;58.86
10462;BME280;5278;42.656;23.374;2023-02-12T10:29:40;95725.97;;;7.31;58.32
10462;BME280;5278;42.656;23.374;2023-02-12T10:32:15;95729.22;;;7.33;57.85
10462;BME280;5278;42.656;23.374;2023-02-12T10:34:46;95610.09;;;6.43;57.40
10462;BME280;5278;42.656;23.374;2023-02-12T10:37:27;95739.66;;;6.90;58.61
10462;BME280;5278;42.656;23.374;2023-02-12T10:40:01;95725.16;;;6.46;60.67
10462;BME280;5278;42.656;23.374;2023-02-12T10:42:35;95741.84;;;6.42;61.46
10462;BME280;5278;42.656;23.374;2023-02-12T10:45:05;95733.47;;;6.49;61.45
10462;BME280;5278;42.656;23.374;2023-02-12T10:47:38;95732.63;;;6.60;60.75
10462;BME280;5278;42.656;23.374;2023-02-12T10:50:16;95711.00;;;6.40;60.75
10462;BME280;5278;42.656;23.374;2023-02-12T10:52:47;95727.50;;;6.49;60.58
10462;BME280;5278;42.656;23.374;2023-02-12T10:55:27;95743.97;;;6.69;60.61
10462;BME280;5278;42.656;23.374;2023-02-12T10:57:56;95746.91;;;6.75;60.33
10462;BME280;5278;42.656;23.374;2023-02-12T11:00:26;95748.28;;;6.79;60.21
10462;BME280;5278;42.656;23.374;2023-02-12T11:03:01;95738.97;;;6.88;59.84
10462;BME280;5278;42.656;23.374;2023-02-12T11:05:31;95746.56;;;7.01;59.24
10462;BME280;5278;42.656;23.374;2023-02-12T11:07:59;95742.78;;;7.05;59.06
10462;BME280;5278;42.656;23.374;2023-02-12T11:10:27;95743.53;;;7.16;58.36
10462;BME280;5278;42.656;23.374;2023-02-12T11:12:57;95733.28;;;7.26;58.52
10462;BME280;5278;42.656;23.374;2023-02-12T11:15:26;95735.19;;;7.54;57.64
10462;BME280;5278;42.656;23.374;2023-02-12T11:17:58;95729.94;;;7.96;56.67
10462;BME280;5278;42.656;23.374;2023-02-12T11:20:27;95725.59;;;8.36;54.36
10462;BME280;5278;42.656;23.374;2023-02-12T11:22:56;95707.63;;;8.54;53.40
10462;BME280;5278;42.656;23.374;2023-02-12T11:25:25;95723.56;;;9.26;85.19
10462;BME280;5278;42.656;23.374;2023-02-12T11:28:03;95704.78;;;11.57;100.00
10462;BME280;5278;42.656;23.374;2023-02-12T11:30:31;95686.56;;;13.08;68.88
10462;BME280;5278;42.656;23.374;2023-02-12T11:33:14;95714.88;;;13.84;52.12
10462;BME280;5278;42.656;23.374;2023-02-12T11:35:50;95711.31;;;14.23;46.77
10462;BME280;5278;42.656;23.374;2023-02-12T11:38:23;95718.88;;;14.57;44.83
10462;BME280;5278;42.656;23.374;2023-02-12T11:40:55;95690.38;;;14.93;42.29
10462;BME280;5278;42.656;23.374;2023-02-12T11:43:24;95698.13;;;15.24;40.89
10462;BME280;5278;42.656;23.374;2023-02-12T11:45:53;95695.38;;;15.40;41.11
10462;BME280;5278;42.656;23.374;2023-02-12T11:48:25;95693.81;;;15.54;39.80
10462;BME280;5278;42.656;23.374;2023-02-12T11:50:55;95698.06;;;15.55;39.06
10462;BME280;5278;42.656;23.374;2023-02-12T11:53:25;95698.97;;;15.39;38.68
10462;BME280;5278;42.656;23.374;2023-02-12T11:55:55;95700.84;;;15.31;38.98
10462;BME280;5278;42.656;23.374;2023-02-12T11:58:26;95699.13;;;15.23;39.05
10462;BME280;5278;42.656;23.374;2023-02-12T12:00:58;95701.75;;;15.23;39.17
10462;BME280;5278;42.656;23.374;2023-02-12T12:03:29;95724.84;;;15.20;38.88
10462;BME280;5278;42.656;23.374;2023-02-12T12:06:04;95711.16;;;15.09;38.77
10462;BME280;5278;42.656;23.374;2023-02-12T12:08:35;95706.81;;;15.02;38.92
10462;BME280;5278;42.656;23.374;2023-02-12T12:11:09;95691.81;;;14.96;37.69
10462;BME280;5278;42.656;23.374;2023-02-12T12:13:43;95612.44;;;14.27;38.66
10462;BME280;5278;42.656;23.374;2023-02-12T12:16:17;95694.31;;;14.89;38.86
10462;BME280;5278;42.656;23.374;2023-02-12T12:19:05;95696.69;;;14.76;39.47
10462;BME280;5278;42.656;23.374;2023-02-12T12:21:57;95678.06;;;14.71;39.13
10462;BME280;5278;42.656;23.374;2023-02-12T12:24:37;95701.53;;;14.87;39.27
10462;BME280;5278;42.656;23.374;2023-02-12T12:27:14;95707.28;;;14.83;38.87
10462;BME280;5278;42.656;23.374;2023-02-12T12:30:19;95627.69;;;14.23;39.07
10462;BME280;5278;42.656;23.374;2023-02-12T12:32:50;95710.19;;;14.88;38.82
10462;BME280;5278;42.656;23.374;2023-02-12T12:35:25;95714.53;;;14.73;39.25
10462;BME280;5278;42.656;23.374;2023-02-12T12:37:58;95705.34;;;14.54;38.89
10462;BME280;5278;42.656;23.374;2023-02-12T12:40:44;95726.78;;;14.49;40.01
10462;BME280;5278;42.656;23.374;2023-02-12T12:43:22;95719.56;;;14.51;39.58
10462;BME280;5278;42.656;23.374;2023-02-12T12:46:13;95717.97;;;14.42;40.21
10462;BME280;5278;42.656;23.374;2023-02-12T12:49:01;95724.47;;;14.54;39.60
10462;BME280;5278;42.656;23.374;2023-02-12T12:51:39;95728.88;;;14.54;39.35
10462;BME280;5278;42.656;23.374;2023-02-12T12:54:24;95724.34;;;14.40;39.33
10462;BME280;5278;42.656;23.374;2023-02-12T12:57:04;95732.25;;;14.15;40.67
10462;BME280;5278;42.656;23.374;2023-02-12T12:59:57;95710.44;;;13.92;40.56
10462;BME280;5278;42.656;23.374;2023-02-12T13:08:36;95731.00;;;14.03;40.16
10462;BME280;5278;42.656;23.374;2023-02-12T13:11:10;95740.47;;;14.04;39.96
10462;BME280;5278;42.656;23.374;2023-02-12T13:13:44;95732.13;;;14.09;39.84
10462;BME280;5278;42.656;23.374;2023-02-12T13:16:16;95729.22;;;13.96;40.20
10462;BME280;5278;42.656;23.374;2023-02-12T13:18:55;95740.63;;;14.03;40.06
10462;BME280;5278;42.656;23.374;2023-02-12T13:21:33;95742.59;;;14.09;39.95
10462;BME280;5278;42.656;23.374;2023-02-12T13:24:06;95745.81;;;14.11;40.03
10462;BME280;5278;42.656;23.374;2023-02-12T13:26:46;95738.34;;;14.00;40.07
10462;BME280;5278;42.656;23.374;2023-02-12T13:29:18;95743.59;;;13.92;40.36
10462;BME280;5278;42.656;23.374;2023-02-12T13:31:50;95736.09;;;13.80;40.46
10462;BME280;5278;42.656;23.374;2023-02-12T13:34:21;95748.53;;;13.78;40.85
10462;BME280;5278;42.656;23.374;2023-02-12T13:36:51;95744.28;;;13.61;40.84
10462;BME280;5278;42.656;23.374;2023-02-12T13:39:26;95735.84;;;13.43;41.11
10462;BME280;5278;42.656;23.374;2023-02-12T13:42:02;95755.88;;;13.51;41.38
10462;BME280;5278;42.656;23.374;2023-02-12T13:44:39;95755.72;;;13.36;40.54